Time;durP1;ratioP1;P1;durP2;ratioP2;P2;SDS_P1;SDS_P2;PMS_P1;PMS_P2;Temp;Humidity;BMP_temperature;BMP_pressure;BME280_temperature;BME280_humidity;BME280_pressure;Samples;Min_cycle;Max_cycle;Signal;HPM_P1;HPM_P2
2023/06/18 00:00:44;;;;;;;95.63;91.40;;;14.10;99.90;;;;;;5042091;28;20232;-83
2023/06/18 00:03:10;;;;;;;74.87;70.83;;;14.00;99.90;;;;;;5033983;28;20222;-83
2023/06/18 00:05:36;;;;;;;76.20;72.30;;;13.90;99.90;;;;;;5034055;28;20834;-85
2023/06/18 00:08:02;;;;;;;71.10;67.50;;;13.90;99.90;;;;;;5015061;28;21132;-84
2023/06/18 00:10:27;;;;;;;63.20;59.57;;;13.90;99.90;;;;;;5033581;28;20312;-88
2023/06/18 00:12:53;;;;;;;65.90;62.60;;;13.90;99.90;;;;;;5032354;28;20578;-85
2023/06/18 00:15:19;;;;;;;62.70;59.13;;;13.90;99.90;;;;;;5032618;28;20663;-87
2023/06/18 00:17:45;;;;;;;62.20;58.87;;;13.90;99.90;;;;;;5032604;28;20671;-88
2023/06/18 00:20:11;;;;;;;65.50;61.77;;;13.90;99.90;;;;;;5050405;28;20190;-87
2023/06/18 00:22:38;;;;;;;63.60;60.43;;;13.90;99.90;;;;;;5050926;28;20975;-84
2023/06/18 00:25:07;;;;;;;64.27;60.97;;;13.80;99.90;;;;;;5018417;28;20691;-84
2023/06/18 00:27:33;;;;;;;64.73;61.13;;;13.70;99.90;;;;;;5034093;28;20222;-83
2023/06/18 00:29:59;;;;;;;67.87;64.37;;;13.80;99.90;;;;;;5036916;28;20221;-83
2023/06/18 00:32:26;;;;;;;75.10;71.33;;;13.80;99.90;;;;;;5049906;28;20317;-85
2023/06/18 00:34:53;;;;;;;75.23;71.57;;;13.80;99.90;;;;;;5040801;28;20202;-86
2023/06/18 00:37:20;;;;;;;82.60;78.80;;;13.80;99.90;;;;;;5055646;28;20222;-85
2023/06/18 00:39:46;;;;;;;89.40;84.93;;;13.90;99.90;;;;;;5038645;28;20236;-88
2023/06/18 00:42:12;;;;;;;104.60;99.90;;;13.90;99.90;;;;;;5040470;28;20228;-84
2023/06/18 00:44:42;;;;;;;137.77;132.53;;;14.10;99.90;;;;;;5048869;28;20230;-84
2023/06/18 00:47:12;;;;;;;165.13;158.73;;;14.10;99.90;;;;;;5058777;28;20198;-83
2023/06/18 00:49:41;;;;;;;213.53;205.80;;;14.20;99.90;;;;;;5039301;28;20194;-85
2023/06/18 00:52:15;;;;;;;252.33;243.50;;;14.20;99.90;;;;;;5058274;28;20643;-85
2023/06/18 00:54:44;;;;;;;282.87;272.73;;;14.20;99.90;;;;;;5041023;28;20233;-86
2023/06/18 00:57:13;;;;;;;312.67;302.03;;;14.20;99.90;;;;;;5058509;28;20266;-83
2023/06/18 00:59:42;;;;;;;330.77;319.87;;;14.10;99.90;;;;;;5024174;28;20214;-85
2023/06/18 01:02:09;;;;;;;353.20;341.03;;;14.10;99.90;;;;;;5039729;28;20289;-83
2023/06/18 01:04:37;;;;;;;357.60;345.07;;;14.00;99.90;;;;;;5058422;28;20275;-86
2023/06/18 01:07:03;;;;;;;361.63;348.87;;;13.80;99.90;;;;;;5037301;28;20999;-85
2023/06/18 01:09:30;;;;;;;377.00;363.40;;;13.70;99.90;;;;;;5022512;28;20552;-86
2023/06/18 01:11:57;;;;;;;384.40;370.83;;;13.60;99.90;;;;;;5056536;28;20217;-86
2023/06/18 01:14:31;;;;;;;405.43;391.20;;;13.60;99.90;;;;;;5055835;28;20983;-84
2023/06/18 01:16:59;;;;;;;406.60;392.33;;;13.60;99.90;;;;;;5057778;28;20178;-84
2023/06/18 01:19:58;;;;;;;385.93;372.20;;;13.50;99.90;;;;;;5048900;28;20220;-83
2023/06/18 01:22:39;;;;;;;393.90;380.10;;;13.50;99.90;;;;;;5057419;28;20230;-83
2023/06/18 01:25:08;;;;;;;368.03;354.50;;;13.50;99.90;;;;;;5047836;28;20225;-83
2023/06/18 01:27:43;;;;;;;354.70;342.37;;;13.50;99.90;;;;;;5056211;28;20229;-84
2023/06/18 01:30:11;;;;;;;330.13;318.73;;;13.60;99.90;;;;;;5037366;28;20219;-84
2023/06/18 01:32:38;;;;;;;315.43;303.90;;;13.60;99.90;;;;;;5056091;28;20686;-83
2023/06/18 01:35:14;;;;;;;281.97;272.23;;;13.70;99.90;;;;;;5046245;28;20355;-84
2023/06/18 01:38:01;;;;;;;250.37;240.97;;;13.60;99.90;;;;;;5038966;28;20217;-82
2023/06/18 01:41:05;;;;;;;229.67;221.47;;;13.70;99.90;;;;;;5056078;28;20221;-83
2023/06/18 01:43:46;;;;;;;204.60;195.97;;;13.70;99.90;;;;;;5018569;28;20277;-85
2023/06/18 01:46:16;;;;;;;180.13;173.17;;;13.60;99.90;;;;;;5039694;28;20225;-85
2023/06/18 01:48:46;;;;;;;175.77;168.67;;;13.60;99.90;;;;;;5040119;28;20279;-83
2023/06/18 01:51:15;;;;;;;165.77;157.97;;;13.60;99.90;;;;;;5039804;28;20222;-86
2023/06/18 01:53:43;;;;;;;163.70;156.97;;;13.80;99.90;;;;;;5054581;28;20244;-84
2023/06/18 01:56:09;;;;;;;150.50;143.80;;;13.70;99.90;;;;;;5035134;28;20185;-83
2023/06/18 01:58:40;;;;;;;153.23;146.83;;;13.40;99.90;;;;;;5053784;28;20190;-88
2023/06/18 02:01:06;;;;;;;158.90;152.40;;;13.40;99.90;;;;;;5052233;28;20218;-89
2023/06/18 02:03:32;;;;;;;171.53;164.53;;;13.50;99.90;;;;;;5035958;28;20715;-84
2023/06/18 02:05:57;;;;;;;169.47;162.47;;;13.50;99.90;;;;;;5038837;28;20679;-88
2023/06/18 02:08:23;;;;;;;179.97;172.90;;;13.50;99.90;;;;;;5034567;28;20189;-88
2023/06/18 02:10:49;;;;;;;182.03;174.33;;;13.50;99.90;;;;;;5032854;28;20645;-88
2023/06/18 02:13:15;;;;;;;167.97;160.60;;;13.60;99.90;;;;;;5033361;28;20702;-86
2023/06/18 02:15:41;;;;;;;157.60;150.57;;;13.60;99.90;;;;;;5031593;28;20225;-83
2023/06/18 02:18:08;;;;;;;147.10;140.53;;;13.60;99.90;;;;;;5033605;28;20217;-83
2023/06/18 02:20:35;;;;;;;134.43;128.83;;;13.50;99.90;;;;;;5049316;28;20699;-83
2023/06/18 02:23:00;;;;;;;120.13;114.53;;;13.40;99.90;;;;;;5050287;28;20287;-83
2023/06/18 02:25:29;;;;;;;120.10;112.70;;;13.30;99.90;;;;;;5050064;28;20785;-86
2023/06/18 02:27:59;;;;;;;110.97;105.03;;;13.30;99.90;;;;;;5016858;28;20840;-84
2023/06/18 02:30:25;;;;;;;115.63;103.93;;;13.30;99.90;;;;;;5052564;28;20221;-86
2023/06/18 02:32:52;;;;;;;103.33;97.60;;;13.20;99.90;;;;;;5051988;28;20237;-85
2023/06/18 02:35:18;;;;;;;101.40;96.47;;;13.10;99.90;;;;;;5051388;28;20197;-85
2023/06/18 02:37:44;;;;;;;106.93;93.43;;;13.00;99.90;;;;;;5037232;28;20202;-85
2023/06/18 02:40:14;;;;;;;108.30;97.50;;;13.00;99.90;;;;;;5049615;28;20249;-82
2023/06/18 02:42:47;;;;;;;111.43;97.53;;;12.90;99.90;;;;;;5053744;28;20218;-82
2023/06/18 02:45:17;;;;;;;89.60;81.53;;;12.90;99.90;;;;;;5051793;28;20229;-85
2023/06/18 02:47:48;;;;;;;87.97;82.00;;;12.80;99.90;;;;;;5035885;28;20578;-87
2023/06/18 02:50:15;;;;;;;90.63;83.17;;;12.70;99.90;;;;;;5049866;28;20181;-83
2023/06/18 02:52:41;;;;;;;75.57;71.97;;;12.70;99.90;;;;;;5055752;28;20190;-82
2023/06/18 02:55:08;;;;;;;74.73;71.30;;;12.70;99.90;;;;;;5048953;28;20243;-83
2023/06/18 02:57:35;;;;;;;64.77;59.77;;;12.70;99.90;;;;;;5035542;28;20227;-88
2023/06/18 03:00:04;;;;;;;52.50;49.60;;;12.70;99.90;;;;;;5035032;28;20227;-88
2023/06/18 03:02:31;;;;;;;53.07;47.93;;;12.70;99.90;;;;;;5051518;28;20702;-88
2023/06/18 03:04:56;;;;;;;40.43;37.80;;;12.70;99.90;;;;;;5035514;28;20194;-85
2023/06/18 03:07:22;;;;;;;33.90;30.80;;;12.80;99.90;;;;;;5018731;28;20220;-83
2023/06/18 03:09:48;;;;;;;54.67;28.30;;;12.80;99.90;;;;;;5033898;28;20339;-84
2023/06/18 03:12:14;;;;;;;78.17;25.63;;;12.70;99.90;;;;;;5037059;28;21080;-83
2023/06/18 03:14:39;;;;;;;66.33;24.60;;;12.70;99.90;;;;;;5054065;28;20233;-87
2023/06/18 03:17:05;;;;;;;62.37;24.27;;;12.80;99.90;;;;;;5038213;28;20194;-82
2023/06/18 03:19:31;;;;;;;55.53;26.40;;;13.00;99.90;;;;;;5038831;28;20217;-86
2023/06/18 03:21:56;;;;;;;62.60;35.00;;;13.00;99.90;;;;;;5020019;28;20205;-85
2023/06/18 03:24:22;;;;;;;50.90;40.53;;;12.90;99.90;;;;;;5020624;28;20240;-86
2023/06/18 03:26:48;;;;;;;47.60;43.70;;;12.90;99.90;;;;;;5037006;28;20217;-83
2023/06/18 03:29:14;;;;;;;43.80;40.63;;;13.00;99.90;;;;;;5038004;28;20222;-83
2023/06/18 03:31:40;;;;;;;39.73;37.03;;;13.10;99.90;;;;;;5021187;28;20316;-88
2023/06/18 03:34:07;;;;;;;37.53;34.30;;;13.10;99.90;;;;;;5056829;28;20225;-84
2023/06/18 03:36:39;;;;;;;35.97;32.90;;;13.30;99.90;;;;;;5054510;28;20623;-83
2023/06/18 03:39:09;;;;;;;45.73;41.90;;;13.40;99.90;;;;;;5052657;28;20217;-83
2023/06/18 03:41:36;;;;;;;64.17;59.77;;;13.40;99.90;;;;;;5056439;28;20214;-88
2023/06/18 03:44:02;;;;;;;106.83;101.50;;;13.50;99.90;;;;;;5055690;28;20667;-85
2023/06/18 03:46:29;;;;;;;242.60;233.03;;;13.60;99.90;;;;;;5023143;28;20241;-88
2023/06/18 03:48:55;;;;;;;266.23;256.07;;;13.70;99.90;;;;;;5039653;28;20229;-85
2023/06/18 03:51:21;;;;;;;240.70;232.17;;;13.80;99.90;;;;;;5023812;28;20222;-83
2023/06/18 03:53:47;;;;;;;187.23;178.00;;;13.90;99.90;;;;;;5037517;28;20274;-85
2023/06/18 03:56:13;;;;;;;280.27;268.67;;;13.90;99.90;;;;;;5037608;28;20186;-82
2023/06/18 03:58:39;;;;;;;392.43;377.97;;;14.00;99.90;;;;;;5048894;28;20216;-82
2023/06/18 04:01:07;;;;;;;428.60;409.00;;;14.00;99.90;;;;;;5042566;28;20221;-83
2023/06/18 04:03:33;;;;;;;360.07;345.47;;;14.10;99.90;;;;;;5051263;28;20229;-83
2023/06/18 04:05:59;;;;;;;292.03;278.97;;;14.20;99.90;;;;;;5025382;28;20213;-85
2023/06/18 04:08:25;;;;;;;248.67;239.13;;;14.30;99.90;;;;;;5041669;28;20543;-83
2023/06/18 04:10:51;;;;;;;219.43;211.07;;;14.30;99.90;;;;;;5059679;28;20869;-82
2023/06/18 04:13:17;;;;;;;205.80;197.30;;;14.40;99.90;;;;;;5025106;28;20928;-85
2023/06/18 04:15:46;;;;;;;163.77;156.40;;;14.50;99.90;;;;;;5059058;28;20217;-87
2023/06/18 04:18:11;;;;;;;159.43;148.80;;;14.50;99.90;;;;;;5045336;28;20222;-83
2023/06/18 04:20:37;;;;;;;136.20;128.03;;;14.50;99.90;;;;;;5054590;28;20216;-84
2023/06/18 04:23:03;;;;;;;105.70;97.67;;;14.50;99.90;;;;;;5046569;28;20280;-84
2023/06/18 04:25:30;;;;;;;86.83;80.50;;;14.50;99.90;;;;;;5027744;28;20241;-86
2023/06/18 04:27:55;;;;;;;76.20;71.27;;;14.40;99.90;;;;;;5063479;28;20754;-84
2023/06/18 04:30:21;;;;;;;105.27;72.37;;;14.50;99.90;;;;;;5043350;28;20746;-87
2023/06/18 04:32:47;;;;;;;86.60;82.10;;;14.50;99.90;;;;;;5051554;28;20322;-84
2023/06/18 04:35:13;;;;;;;105.80;100.47;;;14.60;99.90;;;;;;5023520;28;20297;-85
2023/06/18 04:37:39;;;;;;;134.30;128.30;;;14.70;99.90;;;;;;5062581;28;20276;-82
2023/06/18 04:40:09;;;;;;;149.37;140.13;;;14.70;99.90;;;;;;5061193;28;20224;-84
2023/06/18 04:42:38;;;;;;;168.80;160.67;;;14.80;99.90;;;;;;5058179;28;20301;-84
2023/06/18 04:45:05;;;;;;;185.30;177.83;;;14.80;99.90;;;;;;5026639;28;20222;-85
2023/06/18 04:47:32;;;;;;;197.33;188.43;;;14.80;99.90;;;;;;5063211;28;20662;-84
2023/06/18 04:49:58;;;;;;;198.77;190.50;;;14.80;99.90;;;;;;5060002;28;20575;-83
2023/06/18 04:52:23;;;;;;;186.23;179.17;;;14.70;99.90;;;;;;5037430;28;20617;-87
2023/06/18 04:54:52;;;;;;;188.63;181.73;;;14.80;99.90;;;;;;5023394;28;20681;-83
2023/06/18 04:57:19;;;;;;;168.23;161.70;;;14.90;99.90;;;;;;5059244;28;20233;-85
2023/06/18 04:59:46;;;;;;;133.60;128.20;;;15.00;99.90;;;;;;5041085;28;20217;-84
2023/06/18 05:02:12;;;;;;;105.70;100.67;;;15.10;99.90;;;;;;5041539;28;20189;-84
2023/06/18 05:04:40;;;;;;;127.57;119.03;;;15.20;99.90;;;;;;5041713;28;20217;-84
2023/06/18 05:07:06;;;;;;;148.07;138.63;;;15.20;99.90;;;;;;5039987;28;20721;-85
2023/06/18 05:09:32;;;;;;;170.33;158.90;;;15.20;99.90;;;;;;5056441;28;20885;-85
2023/06/18 05:11:58;;;;;;;179.23;169.67;;;15.10;99.90;;;;;;5041460;28;20570;-84
2023/06/18 05:14:23;;;;;;;166.43;158.10;;;15.10;99.90;;;;;;5039783;28;20193;-87
2023/06/18 05:16:49;;;;;;;154.97;148.67;;;15.20;99.90;;;;;;5038459;28;20189;-87
2023/06/18 05:19:15;;;;;;;160.00;153.77;;;15.20;99.90;;;;;;5057937;28;20278;-86
2023/06/18 05:21:41;;;;;;;165.23;155.73;;;15.20;99.90;;;;;;5040805;28;20221;-84
2023/06/18 05:24:07;;;;;;;169.73;162.80;;;15.30;99.90;;;;;;5040400;28;20247;-86
2023/06/18 05:26:33;;;;;;;183.70;175.97;;;15.20;99.90;;;;;;5055607;28;20221;-88
2023/06/18 05:29:00;;;;;;;204.03;196.60;;;15.30;99.90;;;;;;5022851;28;20208;-88
2023/06/18 05:31:27;;;;;;;217.73;209.80;;;15.20;99.90;;;;;;5056564;28;20229;-85
2023/06/18 05:33:53;;;;;;;256.77;247.97;;;15.20;99.90;;;;;;5023550;28;20222;-85
2023/06/18 05:36:22;;;;;;;289.13;278.70;;;15.20;99.90;;;;;;5022805;28;20222;-87
2023/06/18 05:38:48;;;;;;;291.87;281.20;;;15.20;99.90;;;;;;5055779;28;20221;-85
2023/06/18 05:41:14;;;;;;;333.57;322.33;;;15.30;99.90;;;;;;5055202;28;20229;-83
2023/06/18 05:43:39;;;;;;;395.97;381.97;;;15.40;99.90;;;;;;5057320;28;20308;-87
2023/06/18 05:46:05;;;;;;;434.33;418.90;;;15.50;99.90;;;;;;5047171;28;20222;-85
2023/06/18 05:48:31;;;;;;;468.03;451.70;;;15.50;99.90;;;;;;5041240;28;20220;-84
2023/06/18 05:50:56;;;;;;;485.07;467.93;;;15.40;99.90;;;;;;5046881;28;20233;-88
2023/06/18 05:53:22;;;;;;;466.03;448.70;;;15.40;99.90;;;;;;5055654;28;20202;-86
2023/06/18 05:55:48;;;;;;;451.43;434.43;;;15.50;99.90;;;;;;5007413;28;20199;-84
2023/06/18 05:58:14;;;;;;;410.13;395.27;;;15.50;99.90;;;;;;5023209;28;20220;-83
2023/06/18 06:00:40;;;;;;;372.60;359.63;;;15.60;99.90;;;;;;5055782;28;20226;-85
2023/06/18 06:03:05;;;;;;;361.50;349.03;;;15.50;99.90;;;;;;5037774;28;20236;-85
2023/06/18 06:05:31;;;;;;;330.77;319.37;;;15.60;99.90;;;;;;5038184;28;20253;-83
2023/06/18 06:07:57;;;;;;;315.07;303.20;;;15.70;99.90;;;;;;5038593;28;20186;-85
2023/06/18 06:10:23;;;;;;;289.73;279.30;;;15.80;99.90;;;;;;5021031;28;20237;-83
2023/06/18 06:12:49;;;;;;;262.73;253.53;;;15.90;99.90;;;;;;5039984;28;20221;-87
2023/06/18 06:15:15;;;;;;;258.63;249.50;;;15.80;99.90;;;;;;5020049;28;20253;-86
2023/06/18 06:17:41;;;;;;;237.73;229.13;;;16.00;99.90;;;;;;5053496;28;20650;-87
2023/06/18 06:20:07;;;;;;;239.07;230.60;;;16.00;99.90;;;;;;5035970;28;20639;-87
2023/06/18 06:22:33;;;;;;;243.97;234.67;;;16.00;99.90;;;;;;5036437;28;20214;-87
2023/06/18 06:24:59;;;;;;;275.43;266.23;;;16.40;99.90;;;;;;5035550;28;20590;-87
2023/06/18 06:27:25;;;;;;;284.93;274.43;;;16.70;99.90;;;;;;5031109;28;20229;-86
2023/06/18 06:29:50;;;;;;;285.23;274.57;;;16.80;99.90;;;;;;5033304;28;20584;-87
2023/06/18 06:32:16;;;;;;;57.40;52.80;;;17.30;99.90;;;;;;5050251;28;20744;-90
2023/06/18 06:34:42;;;;;;;61.77;57.30;;;18.00;99.90;;;;;;5014287;28;20706;-87
2023/06/18 06:37:08;;;;;;;117.13;111.80;;;18.30;99.90;;;;;;5039945;28;20222;-86
2023/06/18 06:39:34;;;;;;;127.07;121.87;;;18.80;99.90;;;;;;5048534;28;20706;-87
2023/06/18 06:41:59;;;;;;;100.17;95.47;;;18.80;99.90;;;;;;5051283;28;20218;-90
2023/06/18 06:44:25;;;;;;;101.30;97.07;;;19.10;99.90;;;;;;5041527;28;20209;-90
2023/06/18 06:46:51;;;;;;;111.73;107.03;;;19.90;99.90;;;;;;5035408;28;20183;-89
2023/06/18 06:49:16;;;;;;;112.40;107.70;;;20.30;99.90;;;;;;5035033;28;20221;-90
2023/06/18 06:51:42;;;;;;;94.57;90.37;;;20.60;99.90;;;;;;5014149;28;20678;-88
2023/06/18 06:54:09;;;;;;;85.03;80.97;;;20.60;99.90;;;;;;5031763;28;20213;-89
2023/06/18 06:56:35;;;;;;;82.87;79.27;;;20.80;99.90;;;;;;5017343;28;20251;-89
2023/06/18 06:59:01;;;;;;;86.27;82.30;;;21.40;99.90;;;;;;5052172;28;20186;-89
2023/06/18 07:01:27;;;;;;;96.70;92.80;;;20.90;99.90;;;;;;5031864;28;20220;-87
2023/06/18 07:03:53;;;;;;;143.33;137.93;;;20.70;99.90;;;;;;5048352;28;20237;-89
2023/06/18 07:06:19;;;;;;;153.67;147.57;;;20.40;99.90;;;;;;5032503;28;20721;-88
2023/06/18 07:08:45;;;;;;;138.00;132.63;;;20.30;99.90;;;;;;5030436;28;20277;-89
2023/06/18 07:11:10;;;;;;;142.17;136.87;;;20.10;99.90;;;;;;5039664;28;20206;-88
2023/06/18 07:13:36;;;;;;;142.00;136.30;;;19.90;99.90;;;;;;5031393;28;20991;-90
2023/06/18 07:16:02;;;;;;;147.57;141.80;;;19.60;99.90;;;;;;5032412;28;20252;-89
2023/06/18 07:18:28;;;;;;;139.07;133.27;;;19.50;99.90;;;;;;5032898;28;21098;-88
2023/06/18 07:20:54;;;;;;;142.43;136.63;;;19.70;99.90;;;;;;5011921;28;20302;-88
2023/06/18 07:23:19;;;;;;;132.77;127.47;;;19.90;99.90;;;;;;5044378;28;21136;-88
2023/06/18 07:25:45;;;;;;;131.90;126.40;;;20.00;99.90;;;;;;5036971;28;20189;-88
2023/06/18 07:28:11;;;;;;;137.47;132.03;;;20.40;99.90;;;;;;5035787;28;20613;-88
2023/06/18 07:30:37;;;;;;;134.20;128.80;;;20.80;99.90;;;;;;5032592;28;20586;-87
2023/06/18 07:33:02;;;;;;;162.07;155.80;;;21.00;99.90;;;;;;5035608;28;20295;-88
2023/06/18 07:35:28;;;;;;;168.90;162.50;;;21.00;99.90;;;;;;5035449;28;20701;-87
2023/06/18 07:37:54;;;;;;;200.00;193.03;;;21.90;99.90;;;;;;5034593;28;20300;-88
2023/06/18 07:40:23;;;;;;;225.67;217.93;;;22.90;99.90;;;;;;5033689;28;20675;-90
2023/06/18 07:42:48;;;;;;;203.93;196.83;;;24.30;99.90;;;;;;5018267;28;20221;-90
2023/06/18 07:45:14;;;;;;;190.23;183.25;;;24.60;99.90;;;;;;5018781;28;20743;-90
2023/06/18 07:47:40;;;;;;;186.68;179.82;;;24.80;99.90;;;;;;5034404;28;20752;-89
2023/06/18 07:50:08;;;;;;;176.82;170.00;;;24.60;99.90;;;;;;5033949;28;20523;-88
2023/06/18 07:52:34;;;;;;;166.48;160.52;;;23.80;99.90;;;;;;5033533;28;20211;-90
2023/06/18 07:55:00;;;;;;;178.13;171.73;;;23.40;99.90;;;;;;5016224;28;20217;-86
2023/06/18 07:57:26;;;;;;;158.77;152.90;;;23.10;99.90;;;;;;5003505;28;20270;-87
2023/06/18 07:59:52;;;;;;;161.27;155.55;;;22.80;99.90;;;;;;5034881;28;20216;-87
2023/06/18 08:02:17;;;;;;;185.73;179.10;;;22.60;99.90;;;;;;5033857;28;20280;-87
2023/06/18 08:04:43;;;;;;;167.88;161.95;;;23.60;99.90;;;;;;5034638;28;20213;-88
2023/06/18 08:07:09;;;;;;;167.38;161.30;;;24.10;99.90;;;;;;5037613;28;20248;-90
2023/06/18 08:09:35;;;;;;;141.25;135.82;;;24.90;99.90;;;;;;5064719;28;20226;-90
2023/06/18 08:12:00;;;;;;;125.75;120.72;;;24.90;99.90;;;;;;5023540;28;20593;-89
2023/06/18 08:14:28;;;;;;;94.50;90.53;;;25.30;99.90;;;;;;5021649;28;20229;-87
2023/06/18 08:16:53;;;;;;;56.97;54.20;;;24.70;99.90;;;;;;5038958;28;20190;-90
2023/06/18 08:19:19;;;;;;;55.88;52.78;;;24.00;99.90;;;;;;5022441;28;21150;-88
2023/06/18 08:21:45;;;;;;;56.08;53.28;;;23.70;99.90;;;;;;5003514;28;20638;-89
2023/06/18 08:24:11;;;;;;;56.38;53.45;;;23.80;99.90;;;;;;5020224;28;20755;-88
2023/06/18 08:26:37;;;;;;;56.47;53.25;;;23.90;99.90;;;;;;5022568;28;20328;-89
2023/06/18 08:29:03;;;;;;;54.10;50.92;;;23.80;99.90;;;;;;5056829;28;20837;-88
2023/06/18 08:31:29;;;;;;;54.95;52.15;;;23.90;99.90;;;;;;5036569;28;20254;-90
2023/06/18 08:33:55;;;;;;;59.92;56.60;;;23.80;99.90;;;;;;5045922;28;20267;-88
2023/06/18 08:36:21;;;;;;;61.60;58.40;;;23.50;99.90;;;;;;5054235;28;20210;-88
2023/06/18 08:38:47;;;;;;;65.45;62.00;;;23.00;99.90;;;;;;5055457;28;20229;-88
2023/06/18 08:41:14;;;;;;;78.22;74.50;;;22.70;99.90;;;;;;5021697;28;20198;-90
2023/06/18 08:43:40;;;;;;;71.80;68.25;;;22.60;99.90;;;;;;5053229;28;20214;-87
2023/06/18 08:46:11;;;;;;;77.10;73.35;;;22.80;99.90;;;;;;5054304;28;20240;-88
2023/06/18 08:48:42;;;;;;;74.88;71.57;;;23.10;99.90;;;;;;5046528;28;20707;-87
2023/06/18 08:51:10;;;;;;;80.18;76.68;;;23.30;99.90;;;;;;5059136;28;20309;-88
2023/06/18 08:54:05;;;;;;;81.20;77.55;;;23.20;99.90;;;;;;5039231;28;20244;-87
2023/06/18 08:56:32;;;;;;;84.95;81.05;;;23.20;99.90;;;;;;5052990;28;20746;-88
2023/06/18 08:59:01;;;;;;;84.07;80.20;;;23.30;99.90;;;;;;5023876;28;20678;-87
2023/06/18 09:01:27;;;;;;;82.78;79.18;;;23.50;99.90;;;;;;5057253;28;20218;-89
2023/06/18 09:03:54;;;;;;;87.22;83.10;;;23.90;99.90;;;;;;5056198;28;20226;-88
2023/06/18 09:06:22;;;;;;;73.35;70.30;;;24.30;99.90;;;;;;5036093;28;20316;-88
2023/06/18 09:08:48;;;;;;;57.65;54.90;;;24.50;99.90;;;;;;5038559;28;20213;-89
2023/06/18 09:11:14;;;;;;;52.83;50.28;;;24.40;99.90;;;;;;5022157;28;20580;-89
2023/06/18 09:13:41;;;;;;;48.60;46.08;;;24.70;99.90;;;;;;5021394;28;20391;-88
2023/06/18 09:16:08;;;;;;;43.25;40.85;;;25.00;99.90;;;;;;5053138;28;20538;-89
2023/06/18 09:18:34;;;;;;;34.40;32.22;;;25.60;99.90;;;;;;5036856;28;20221;-86
2023/06/18 09:21:00;;;;;;;36.70;34.28;;;26.10;99.90;;;;;;5022245;28;20766;-88
2023/06/18 09:23:26;;;;;;;33.47;31.15;;;26.50;99.90;;;;;;5018110;28;20771;-90
2023/06/18 09:25:56;;;;;;;37.92;35.65;;;27.00;99.90;;;;;;5017261;28;20194;-88
2023/06/18 09:28:26;;;;;;;37.50;35.08;;;27.00;99.90;;;;;;5037864;28;20425;-92
2023/06/18 09:31:03;;;;;;;30.88;29.08;;;27.00;99.90;;;;;;5033283;28;20275;-90
2023/06/18 09:33:34;;;;;;;29.92;28.10;;;26.80;99.90;;;;;;5011741;28;20789;-87
2023/06/18 09:36:05;;;;;;;38.10;36.10;;;26.80;99.90;;;;;;5021330;28;20273;-85
2023/06/18 09:38:41;;;;;;;27.85;25.75;;;27.20;99.90;;;;;;5015252;28;20247;-85
2023/06/18 09:41:17;;;;;;;23.20;22.00;;;27.40;99.90;;;;;;4978456;28;20250;-88
2023/06/18 09:43:47;;;;;;;26.40;25.10;;;27.60;99.90;;;;;;5026288;28;20805;-89
2023/06/18 09:46:14;;;;;;;28.10;26.80;;;27.80;99.90;;;;;;5019501;28;20247;-89
2023/06/18 09:48:42;;;;;;;28.15;26.42;;;27.50;99.90;;;;;;5003460;28;20218;-87
2023/06/18 09:51:08;;;;;;;28.27;26.92;;;27.10;99.90;;;;;;5009663;28;20304;-89
2023/06/18 09:53:34;;;;;;;31.20;29.58;;;26.80;99.90;;;;;;5011664;28;20301;-90
2023/06/18 09:56:13;;;;;;;32.15;30.40;;;26.80;99.90;;;;;;4986874;28;20234;-88
2023/06/18 09:58:41;;;;;;;31.08;29.30;;;26.40;99.90;;;;;;5010248;28;20213;-89
2023/06/18 10:01:07;;;;;;;23.92;22.52;;;26.10;99.90;;;;;;5007607;28;20220;-88
2023/06/18 10:03:33;;;;;;;32.55;30.90;;;25.70;99.90;;;;;;5020183;28;20230;-90
2023/06/18 10:06:32;;;;;;;28.40;26.70;;;26.10;99.90;;;;;;5012163;28;20301;-89
2023/06/18 10:08:58;;;;;;;29.80;28.30;;;26.30;99.90;;;;;;4982149;28;20212;-89
2023/06/18 10:11:25;;;;;;;30.23;28.45;;;26.40;99.90;;;;;;5025773;28;20226;-86
2023/06/18 10:13:56;;;;;;;30.13;28.52;;;26.30;99.90;;;;;;5011066;28;20722;-88
2023/06/18 10:16:25;;;;;;;27.75;26.13;;;26.50;99.90;;;;;;5013102;28;20215;-87
2023/06/18 10:19:00;;;;;;;30.02;28.52;;;26.30;99.90;;;;;;5013246;28;20249;-86
2023/06/18 10:21:28;;;;;;;29.17;27.48;;;26.40;99.90;;;;;;5025842;28;20229;-87
2023/06/18 10:24:07;;;;;;;29.92;28.38;;;26.60;99.90;;;;;;5010148;28;20223;-87
2023/06/18 10:26:36;;;;;;;30.92;29.20;;;26.60;99.90;;;;;;5014021;28;20223;-87
2023/06/18 10:29:03;;;;;;;30.48;29.00;;;26.30;99.90;;;;;;5010532;28;20227;-88
2023/06/18 10:31:30;;;;;;;31.30;29.60;;;26.60;99.90;;;;;;5031192;28;20248;-89
2023/06/18 10:33:56;;;;;;;29.70;28.17;;;26.60;99.90;;;;;;5042184;28;20451;-87
2023/06/18 10:36:23;;;;;;;27.67;26.30;;;26.60;99.90;;;;;;5053869;28;20184;-87
2023/06/18 10:38:49;;;;;;;30.35;28.67;;;26.60;99.90;;;;;;5050517;28;20205;-89
2023/06/18 10:41:20;;;;;;;30.27;28.88;;;26.50;99.90;;;;;;5020629;28;20218;-87
2023/06/18 10:43:50;;;;;;;27.02;25.38;;;26.20;99.90;;;;;;5051973;28;20308;-88
2023/06/18 10:46:17;;;;;;;27.70;26.33;;;26.40;99.90;;;;;;5036818;28;20227;-86
2023/06/18 10:49:14;;;;;;;31.80;30.08;;;26.60;99.90;;;;;;5037682;28;20193;-87
2023/06/18 10:51:40;;;;;;;29.38;27.83;;;27.20;99.90;;;;;;5038185;28;20196;-86
2023/06/18 10:54:23;;;;;;;27.27;25.83;;;27.10;99.90;;;;;;5036917;28;20189;-88
2023/06/18 10:56:51;;;;;;;26.58;25.10;;;27.10;99.90;;;;;;5056188;28;20266;-87
2023/06/18 10:59:41;;;;;;;25.00;23.60;;;27.20;99.90;;;;;;5045411;28;20213;-85
2023/06/18 11:02:07;;;;;;;24.70;23.35;;;28.50;99.90;;;;;;5046427;28;20270;-86
2023/06/18 11:04:34;;;;;;;26.30;25.10;;;28.60;99.90;;;;;;5020314;28;21199;-88
2023/06/18 11:07:23;;;;;;;23.83;22.42;;;29.20;99.90;;;;;;5055164;28;20214;-87
2023/06/18 11:10:01;;;;;;;21.45;20.05;;;28.90;99.90;;;;;;5045071;28;20217;-86
2023/06/18 11:12:31;;;;;;;23.60;22.45;;;28.50;99.90;;;;;;5054891;28;20181;-87
2023/06/18 11:15:16;;;;;;;26.02;24.60;;;28.40;99.90;;;;;;5037817;28;20214;-86
2023/06/18 11:17:50;;;;;;;24.33;22.98;;;29.00;99.90;;;;;;5042103;28;20609;-88
2023/06/18 11:20:20;;;;;;;28.30;26.95;;;30.10;99.90;;;;;;5039038;28;20241;-88
2023/06/18 11:22:47;;;;;;;27.92;26.55;;;30.00;99.90;;;;;;5018887;28;20225;-88
2023/06/18 11:25:15;;;;;;;30.75;29.27;;;29.40;99.90;;;;;;5049742;28;20232;-88
2023/06/18 11:27:46;;;;;;;26.67;24.77;;;28.20;99.90;;;;;;5052384;28;20686;-88
2023/06/18 11:30:13;;;;;;;26.45;25.25;;;27.60;99.90;;;;;;5054448;28;20295;-88
2023/06/18 11:32:40;;;;;;;27.10;25.70;;;27.50;99.90;;;;;;5026781;28;20231;-88
2023/06/18 11:35:08;;;;;;;23.92;22.42;;;27.50;99.90;;;;;;5003301;28;20621;-88
2023/06/18 11:37:35;;;;;;;26.85;25.20;;;27.80;99.90;;;;;;5015589;28;20219;-89
2023/06/18 11:40:02;;;;;;;25.25;23.95;;;27.70;99.90;;;;;;5021307;28;20235;-88
2023/06/18 11:42:28;;;;;;;27.33;25.90;;;27.80;99.90;;;;;;5022253;28;20187;-88
2023/06/18 11:44:57;;;;;;;27.45;26.05;;;28.20;99.90;;;;;;5022015;28;20223;-86
2023/06/18 11:47:24;;;;;;;26.15;24.77;;;28.30;99.90;;;;;;5006100;28;20234;-90
2023/06/18 11:49:51;;;;;;;25.10;23.80;;;28.00;99.90;;;;;;5020402;28;20254;-89
2023/06/18 11:52:21;;;;;;;25.98;24.58;;;28.30;99.90;;;;;;5005841;28;20306;-87
2023/06/18 11:54:48;;;;;;;25.15;23.85;;;28.50;99.90;;;;;;5020596;28;20777;-86
2023/06/18 11:57:19;;;;;;;25.30;24.00;;;28.90;99.90;;;;;;5021287;28;20253;-89
2023/06/18 11:59:46;;;;;;;26.20;24.67;;;28.60;99.90;;;;;;5019896;28;20207;-87
2023/06/18 12:02:15;;;;;;;25.23;23.77;;;28.60;99.90;;;;;;5004182;28;20223;-89
2023/06/18 12:04:42;;;;;;;26.27;25.08;;;28.70;99.90;;;;;;5004985;28;20238;-88
2023/06/18 12:07:14;;;;;;;27.27;25.88;;;28.30;99.90;;;;;;5013492;28;20251;-88
2023/06/18 12:09:40;;;;;;;27.10;25.65;;;28.10;99.90;;;;;;5005243;28;20179;-87
2023/06/18 12:12:35;;;;;;;26.73;25.23;;;28.30;99.90;;;;;;4996132;28;20642;-87
2023/06/18 12:15:30;;;;;;;23.75;22.45;;;28.40;99.90;;;;;;5021389;28;20218;-88
2023/06/18 12:18:08;;;;;;;25.40;24.10;;;28.80;99.90;;;;;;5021710;28;20243;-88
2023/06/18 12:20:35;;;;;;;24.88;23.38;;;28.80;99.90;;;;;;5018611;28;20338;-88
2023/06/18 12:23:02;;;;;;;26.58;25.13;;;29.00;99.90;;;;;;5022512;28;20305;-88